Time;durP1;ratioP1;P1;durP2;ratioP2;P2;SDS_P1;SDS_P2;PMS_P1;PMS_P2;Temp;Humidity;BMP_temperature;BMP_pressure;BME280_temperature;BME280_humidity;BME280_pressure;Samples;Min_cycle;Max_cycle;Signal;HPM_P1;HPM_P2
2023/03/30 00:02:37;;;;;;;2.15;0.95;;;22.00;99.90;;;;;;5016820;28;20567;-78
2023/03/30 00:05:09;;;;;;;1.85;0.50;;;22.10;99.90;;;;;;5021447;28;20228;-78
2023/03/30 00:07:43;;;;;;;3.75;0.50;;;22.10;99.90;;;;;;5020301;28;20200;-77
2023/03/30 00:10:16;;;;;;;0.65;0.40;;;22.10;99.90;;;;;;5023531;28;20199;-79
2023/03/30 00:12:49;;;;;;;2.50;0.60;;;22.10;99.90;;;;;;5018976;28;20228;-78
2023/03/30 00:15:22;;;;;;;1.90;0.60;;;22.10;99.90;;;;;;5017679;28;20319;-78
2023/03/30 00:17:54;;;;;;;1.98;0.70;;;22.30;99.90;;;;;;5016732;28;20324;-78
2023/03/30 00:20:25;;;;;;;1.73;0.50;;;22.50;99.90;;;;;;5027781;28;20204;-79
2023/03/30 00:22:58;;;;;;;3.03;0.47;;;22.50;99.60;;;;;;5015650;28;20689;-78
2023/03/30 00:25:30;;;;;;;1.95;0.50;;;22.60;99.90;;;;;;5015350;28;20557;-79
2023/03/30 00:28:01;;;;;;;0.70;0.38;;;22.60;99.90;;;;;;5015233;28;20244;-79
2023/03/30 00:30:32;;;;;;;1.65;0.60;;;22.60;99.40;;;;;;5017202;28;20783;-79
2023/03/30 00:33:03;;;;;;;2.65;0.93;;;22.50;99.50;;;;;;5014448;28;20808;-79
2023/03/30 00:35:34;;;;;;;0.75;0.38;;;22.60;99.90;;;;;;5018665;28;20836;-80
2023/03/30 00:38:08;;;;;;;1.40;0.55;;;22.70;99.90;;;;;;5016771;28;20197;-79
2023/03/30 00:40:39;;;;;;;1.50;0.45;;;22.80;99.10;;;;;;5017480;28;20211;-79
2023/03/30 00:43:13;;;;;;;0.88;0.40;;;22.70;99.30;;;;;;5018755;28;20325;-79
2023/03/30 00:45:45;;;;;;;0.30;0.30;;;22.60;99.80;;;;;;5017929;28;20212;-79
2023/03/30 00:48:20;;;;;;;0.82;0.40;;;22.70;99.30;;;;;;5018140;28;20200;-79
2023/03/30 00:50:54;;;;;;;0.90;0.50;;;22.90;99.60;;;;;;5028883;28;20216;-78
2023/03/30 00:53:30;;;;;;;0.57;0.40;;;22.80;98.20;;;;;;5022055;28;20200;-78
2023/03/30 00:56:03;;;;;;;0.50;0.40;;;22.80;97.80;;;;;;5024580;28;20227;-79
2023/03/30 00:58:35;;;;;;;0.65;0.40;;;22.90;98.00;;;;;;5018147;28;20689;-79
2023/03/30 01:01:09;;;;;;;1.58;0.50;;;23.10;98.50;;;;;;5016927;28;20545;-78
2023/03/30 01:03:44;;;;;;;1.08;0.38;;;23.20;97.10;;;;;;5017418;28;20196;-78
2023/03/30 01:06:20;;;;;;;0.95;0.40;;;23.30;96.60;;;;;;5018208;28;20201;-78
2023/03/30 01:08:54;;;;;;;2.10;0.40;;;23.40;96.60;;;;;;5019429;28;20209;-78
2023/03/30 01:11:26;;;;;;;1.95;0.45;;;23.50;96.20;;;;;;5017624;28;20204;-79
2023/03/30 01:14:00;;;;;;;1.05;0.40;;;23.40;94.20;;;;;;5018670;28;20220;-79
2023/03/30 01:16:41;;;;;;;0.63;0.30;;;23.40;95.80;;;;;;5018227;28;20228;-80
2023/03/30 01:19:43;;;;;;;0.68;0.47;;;23.40;95.10;;;;;;5017356;28;20659;-77
2023/03/30 01:22:43;;;;;;;2.80;0.50;;;23.50;93.70;;;;;;5016503;28;20263;-78
2023/03/30 01:25:59;;;;;;;2.22;0.57;;;23.50;94.10;;;;;;5019895;28;20543;-78
2023/03/30 01:28:41;;;;;;;0.40;0.30;;;23.50;94.00;;;;;;5015453;28;20278;-78
2023/03/30 01:31:47;;;;;;;0.80;0.45;;;23.60;94.50;;;;;;5015561;28;20216;-78
2023/03/30 01:34:46;;;;;;;2.60;0.60;;;23.70;93.10;;;;;;5015272;28;20197;-78
2023/03/30 01:37:56;;;;;;;2.40;0.80;;;23.90;92.40;;;;;;5015812;28;20712;-79
2023/03/30 01:40:34;;;;;;;3.50;0.80;;;23.90;91.60;;;;;;5017580;28;20342;-79
2023/03/30 01:43:12;;;;;;;1.13;0.70;;;24.10;91.60;;;;;;5017307;28;20669;-79
2023/03/30 01:45:47;;;;;;;1.75;0.85;;;24.10;90.30;;;;;;5017152;28;20208;-79
2023/03/30 01:48:25;;;;;;;1.40;0.73;;;24.10;90.30;;;;;;5016787;28;20211;-78
2023/03/30 01:50:58;;;;;;;2.05;0.90;;;24.10;84.70;;;;;;5022649;28;20311;-76
2023/03/30 01:53:33;;;;;;;1.23;0.80;;;24.20;85.30;;;;;;5018150;28;20200;-79
2023/03/30 01:56:10;;;;;;;0.60;0.40;;;24.40;84.90;;;;;;5017777;28;20272;-79
2023/03/30 01:58:45;;;;;;;1.65;0.55;;;24.50;82.30;;;;;;5024287;28;20216;-78
2023/03/30 02:01:19;;;;;;;0.80;0.20;;;24.30;80.50;;;;;;5017039;28;20208;-78
2023/03/30 02:03:54;;;;;;;0.43;0.40;;;24.20;80.90;;;;;;5031092;28;20184;-78
2023/03/30 02:06:37;;;;;;;0.68;0.40;;;24.20;79.00;;;;;;5030165;28;21555;-79
2023/03/30 02:09:12;;;;;;;0.85;0.40;;;24.40;76.70;;;;;;5038710;28;20215;-79
2023/03/30 02:11:49;;;;;;;1.48;0.30;;;24.30;77.60;;;;;;5023950;28;20204;-78
2023/03/30 02:14:22;;;;;;;1.08;0.30;;;24.20;78.70;;;;;;5017023;28;20702;-79
2023/03/30 02:16:56;;;;;;;0.85;0.20;;;24.40;76.20;;;;;;5015999;28;20244;-78
2023/03/30 02:19:30;;;;;;;0.35;0.30;;;24.30;75.00;;;;;;5019285;28;20212;-78
2023/03/30 02:22:02;;;;;;;0.70;0.50;;;24.50;76.20;;;;;;5017905;28;20203;-78
2023/03/30 02:24:39;;;;;;;0.77;0.38;;;24.40;73.80;;;;;;5018664;28;21013;-78
2023/03/30 02:27:13;;;;;;;0.30;0.20;;;24.40;73.20;;;;;;5021090;28;20235;-78
2023/03/30 02:29:47;;;;;;;1.20;0.40;;;24.40;70.70;;;;;;5016408;28;20216;-78
2023/03/30 02:32:20;;;;;;;0.52;0.35;;;24.50;73.40;;;;;;5020422;28;20193;-78
2023/03/30 02:35:10;;;;;;;0.90;0.32;;;24.60;73.90;;;;;;5016809;28;20705;-78
2023/03/30 02:38:03;;;;;;;1.85;0.40;;;24.80;71.70;;;;;;5016408;28;20233;-78
2023/03/30 02:40:45;;;;;;;0.70;0.30;;;24.90;69.40;;;;;;5015455;28;20532;-78
2023/03/30 02:43:35;;;;;;;0.32;0.32;;;24.90;68.80;;;;;;5016638;28;21501;-78
2023/03/30 02:46:22;;;;;;;1.33;0.28;;;24.90;69.40;;;;;;5015734;28;20212;-78
2023/03/30 02:49:04;;;;;;;1.27;0.30;;;24.90;68.50;;;;;;5017812;28;20732;-77
2023/03/30 02:51:44;;;;;;;0.57;0.30;;;24.70;66.20;;;;;;5024015;28;20239;-78
2023/03/30 02:54:24;;;;;;;0.73;0.30;;;24.40;67.60;;;;;;5031778;28;20193;-77
2023/03/30 02:57:05;;;;;;;0.52;0.20;;;24.40;66.60;;;;;;5050732;28;20232;-78
2023/03/30 02:59:47;;;;;;;0.82;0.25;;;24.60;68.20;;;;;;5044017;28;20202;-78
2023/03/30 03:02:21;;;;;;;0.60;0.30;;;24.70;66.70;;;;;;5029746;28;20196;-76
2023/03/30 03:04:54;;;;;;;1.40;0.40;;;25.00;67.10;;;;;;5015944;28;21133;-78
2023/03/30 03:07:26;;;;;;;0.40;0.30;;;25.20;67.90;;;;;;5013852;28;20633;-78
2023/03/30 03:09:58;;;;;;;0.30;0.20;;;25.30;64.10;;;;;;5014933;28;20201;-77
2023/03/30 03:12:29;;;;;;;0.57;0.30;;;25.20;64.20;;;;;;5017085;28;20212;-78
2023/03/30 03:15:04;;;;;;;1.77;0.40;;;25.10;62.60;;;;;;5015527;28;20196;-78
2023/03/30 03:17:35;;;;;;;0.93;0.25;;;24.90;60.90;;;;;;5015843;28;20236;-78
2023/03/30 03:20:10;;;;;;;1.10;0.30;;;25.00;60.60;;;;;;5017553;28;20254;-77
2023/03/30 03:22:41;;;;;;;1.02;0.40;;;25.20;59.80;;;;;;5014173;28;21088;-78
2023/03/30 03:25:12;;;;;;;0.75;0.40;;;25.30;57.60;;;;;;5014943;28;20668;-77
2023/03/30 03:27:43;;;;;;;0.20;0.20;;;25.20;59.30;;;;;;5016895;28;20239;-77
2023/03/30 03:30:17;;;;;;;0.32;0.13;;;25.10;57.80;;;;;;5014350;28;20196;-77
2023/03/30 03:32:48;;;;;;;3.65;0.50;;;25.20;59.30;;;;;;5013916;28;20209;-77
2023/03/30 03:35:19;;;;;;;2.28;0.47;;;25.30;58.50;;;;;;5013387;28;20758;-77
2023/03/30 03:37:50;;;;;;;0.70;0.32;;;25.50;59.20;;;;;;5011296;28;20220;-77
2023/03/30 03:40:21;;;;;;;1.13;0.60;;;25.70;58.90;;;;;;5014961;28;20200;-77
2023/03/30 03:42:53;;;;;;;0.93;0.60;;;25.60;58.30;;;;;;5017747;28;21492;-77
2023/03/30 03:45:26;;;;;;;0.30;0.20;;;25.60;56.50;;;;;;5017955;28;20201;-78
2023/03/30 03:47:57;;;;;;;1.42;0.50;;;25.30;57.40;;;;;;5018081;28;21116;-79
2023/03/30 03:50:29;;;;;;;2.80;0.30;;;25.00;58.50;;;;;;5027931;28;20306;-76
2023/03/30 03:53:00;;;;;;;0.95;0.50;;;24.90;59.60;;;;;;5021118;28;20193;-78
2023/03/30 03:55:33;;;;;;;1.48;0.32;;;24.70;59.40;;;;;;5018358;28;21060;-77
2023/03/30 03:58:04;;;;;;;2.05;0.40;;;24.60;59.90;;;;;;5018799;28;20232;-77
2023/03/30 04:00:40;;;;;;;0.65;0.30;;;24.80;60.50;;;;;;5017139;28;20205;-78
2023/03/30 04:03:11;;;;;;;0.52;0.20;;;24.90;58.50;;;;;;5018423;28;20865;-78
2023/03/30 04:05:43;;;;;;;0.28;0.28;;;25.00;59.80;;;;;;5018659;28;20236;-78
2023/03/30 04:08:16;;;;;;;0.30;0.30;;;24.90;59.40;;;;;;5019495;28;20201;-77
2023/03/30 04:10:48;;;;;;;1.00;0.40;;;24.90;59.80;;;;;;5023551;28;20207;-77
2023/03/30 04:13:19;;;;;;;2.00;0.38;;;24.90;63.70;;;;;;5017850;28;21023;-77
2023/03/30 04:15:52;;;;;;;0.85;0.32;;;25.10;59.60;;;;;;5017527;28;20212;-78
2023/03/30 04:18:23;;;;;;;1.48;0.20;;;25.10;57.50;;;;;;5029074;28;20232;-78
2023/03/30 04:20:55;;;;;;;3.28;0.30;;;25.20;58.60;;;;;;5019525;28;20555;-77
2023/03/30 04:23:30;;;;;;;2.25;0.20;;;25.20;57.50;;;;;;5018287;28;20205;-76
2023/03/30 04:26:02;;;;;;;2.70;0.40;;;25.20;57.70;;;;;;5021593;28;20286;-77
2023/03/30 04:28:36;;;;;;;1.13;0.40;;;24.90;64.10;;;;;;5020015;28;20232;-78
2023/03/30 04:31:12;;;;;;;2.00;0.68;;;24.90;75.40;;;;;;5019923;28;20201;-77
2023/03/30 04:33:49;;;;;;;2.60;0.60;;;24.80;80.10;;;;;;5020979;28;21665;-80
2023/03/30 04:36:22;;;;;;;1.95;0.50;;;24.80;82.10;;;;;;5017319;28;20279;-78
2023/03/30 04:38:59;;;;;;;1.25;0.52;;;24.80;85.10;;;;;;5020844;28;20200;-77
2023/03/30 04:41:34;;;;;;;1.33;0.50;;;24.80;88.30;;;;;;5022423;28;20206;-79
2023/03/30 04:44:07;;;;;;;0.70;0.50;;;24.90;90.00;;;;;;5019599;28;20205;-77
2023/03/30 04:46:41;;;;;;;1.33;0.60;;;25.00;89.20;;;;;;5023822;28;20238;-79
2023/03/30 04:49:12;;;;;;;2.70;0.47;;;25.00;86.00;;;;;;5020488;28;20204;-78
2023/03/30 04:51:43;;;;;;;1.85;0.52;;;25.00;85.40;;;;;;5018451;28;20223;-77
2023/03/30 04:54:14;;;;;;;1.30;0.60;;;25.00;86.50;;;;;;5022307;28;20212;-78
2023/03/30 04:56:45;;;;;;;1.77;0.60;;;24.90;84.60;;;;;;5020786;28;20275;-77
2023/03/30 04:59:16;;;;;;;1.38;0.30;;;25.00;85.40;;;;;;5019231;28;20200;-78
2023/03/30 05:01:49;;;;;;;2.53;0.50;;;25.00;84.50;;;;;;5015744;28;20213;-77
2023/03/30 05:04:20;;;;;;;2.00;0.43;;;25.00;84.40;;;;;;5016454;28;20202;-77
2023/03/30 05:06:51;;;;;;;1.38;0.40;;;25.00;83.00;;;;;;5016898;28;20200;-78
2023/03/30 05:09:23;;;;;;;1.45;0.40;;;25.10;81.10;;;;;;5015275;28;20212;-76
2023/03/30 05:11:54;;;;;;;1.40;0.40;;;24.90;77.70;;;;;;5016711;28;20820;-77
2023/03/30 05:14:25;;;;;;;1.63;0.35;;;24.90;79.50;;;;;;5016995;28;20199;-77
2023/03/30 05:16:58;;;;;;;1.48;0.60;;;25.10;81.30;;;;;;5015634;28;20714;-77
2023/03/30 05:19:29;;;;;;;1.33;0.45;;;25.20;81.10;;;;;;5016182;28;20655;-77
2023/03/30 05:22:00;;;;;;;1.48;0.47;;;25.00;80.30;;;;;;5015073;28;20224;-78
2023/03/30 05:24:31;;;;;;;1.02;0.30;;;25.10;81.40;;;;;;5017129;28;20197;-76
2023/03/30 05:27:03;;;;;;;0.90;0.50;;;25.20;81.10;;;;;;5017445;28;20232;-80
2023/03/30 05:29:35;;;;;;;0.70;0.40;;;25.30;85.00;;;;;;5014988;28;20671;-78
2023/03/30 05:32:08;;;;;;;1.70;0.77;;;25.10;82.50;;;;;;5016128;28;20200;-79
2023/03/30 05:34:39;;;;;;;2.20;0.50;;;25.00;84.00;;;;;;5016046;28;21869;-78
2023/03/30 05:37:10;;;;;;;0.80;0.40;;;25.10;84.00;;;;;;5021059;28;20235;-78
2023/03/30 05:39:41;;;;;;;1.23;0.52;;;25.00;85.10;;;;;;5020025;28;20201;-77
2023/03/30 05:42:13;;;;;;;2.05;0.50;;;25.20;84.50;;;;;;5021640;28;20204;-79
2023/03/30 05:44:44;;;;;;;2.42;0.50;;;25.20;85.00;;;;;;5018222;28;20205;-77
2023/03/30 05:47:17;;;;;;;1.48;0.50;;;25.30;87.60;;;;;;5014379;28;20193;-78
2023/03/30 05:49:48;;;;;;;1.73;0.75;;;25.40;87.40;;;;;;5017651;28;20337;-79
2023/03/30 05:52:20;;;;;;;1.00;0.38;;;25.20;86.90;;;;;;5016061;28;20203;-77
2023/03/30 05:54:51;;;;;;;1.60;0.47;;;25.20;88.40;;;;;;5018471;28;20314;-77
2023/03/30 05:57:22;;;;;;;2.75;1.08;;;25.10;85.30;;;;;;5016188;28;20591;-78
2023/03/30 05:59:54;;;;;;;2.03;0.70;;;24.90;85.80;;;;;;5016765;28;20200;-78
2023/03/30 06:02:27;;;;;;;0.95;0.50;;;24.90;86.80;;;;;;5018992;28;20537;-78
2023/03/30 06:05:00;;;;;;;2.15;0.60;;;24.90;86.70;;;;;;5018046;28;21262;-78
2023/03/30 06:07:31;;;;;;;1.77;0.70;;;25.20;86.80;;;;;;5016816;28;20676;-77
2023/03/30 06:10:03;;;;;;;2.33;1.20;;;25.60;83.50;;;;;;5024609;28;20205;-77
2023/03/30 06:12:35;;;;;;;1.35;0.70;;;25.90;83.30;;;;;;5015927;28;20221;-78
2023/03/30 06:15:07;;;;;;;0.80;0.52;;;26.20;85.00;;;;;;5017800;28;20247;-77
2023/03/30 06:17:41;;;;;;;2.00;0.50;;;26.30;83.10;;;;;;5023326;28;20585;-77
2023/03/30 06:20:13;;;;;;;1.25;0.47;;;26.10;75.90;;;;;;5016860;28;20879;-78
2023/03/30 06:22:44;;;;;;;2.03;1.70;;;25.90;77.00;;;;;;5019997;28;20322;-78
2023/03/30 06:25:16;;;;;;;2.95;0.70;;;25.90;73.00;;;;;;5015666;28;20207;-78
2023/03/30 06:27:47;;;;;;;2.35;1.23;;;26.10;61.60;;;;;;5017933;28;20243;-78
2023/03/30 06:30:18;;;;;;;2.53;1.38;;;26.30;59.30;;;;;;5020650;28;20205;-77
2023/03/30 06:32:52;;;;;;;1.00;0.70;;;26.30;55.90;;;;;;5024235;28;20672;-78
2023/03/30 06:35:23;;;;;;;1.13;0.90;;;26.50;55.10;;;;;;5018990;28;20308;-78
2023/03/30 06:37:54;;;;;;;1.52;0.57;;;26.50;54.00;;;;;;5019493;28;20220;-78
2023/03/30 06:40:25;;;;;;;1.40;0.80;;;26.40;53.00;;;;;;5020407;28;20204;-78
2023/03/30 06:42:56;;;;;;;1.33;0.60;;;26.70;52.80;;;;;;5016781;28;20201;-77
2023/03/30 06:45:27;;;;;;;1.15;0.57;;;27.00;54.30;;;;;;5014269;28;20208;-78
2023/03/30 06:48:01;;;;;;;1.67;0.90;;;26.90;51.10;;;;;;5021040;28;20243;-78
2023/03/30 06:50:34;;;;;;;3.58;1.13;;;27.20;51.90;;;;;;5022372;28;20825;-78
2023/03/30 06:53:05;;;;;;;0.60;0.40;;;27.50;51.90;;;;;;5019866;28;21585;-78
2023/03/30 06:55:36;;;;;;;1.40;0.52;;;27.60;51.20;;;;;;5019988;28;20204;-78
2023/03/30 06:58:07;;;;;;;1.48;0.80;;;27.60;50.60;;;;;;5019880;28;20237;-78
2023/03/30 07:00:38;;;;;;;1.23;0.88;;;26.80;50.90;;;;;;5033118;28;20700;-77
2023/03/30 07:03:11;;;;;;;1.00;0.60;;;26.60;51.20;;;;;;5035932;28;20776;-78
2023/03/30 07:05:43;;;;;;;0.77;0.50;;;26.00;51.90;;;;;;5026395;28;20205;-78
2023/03/30 07:08:14;;;;;;;1.48;0.80;;;25.70;52.90;;;;;;5027209;28;20201;-78
2023/03/30 07:10:45;;;;;;;4.07;1.58;;;25.50;53.70;;;;;;5021962;28;20351;-78
2023/03/30 07:13:17;;;;;;;0.75;0.50;;;25.20;53.20;;;;;;5020364;28;20197;-79
2023/03/30 07:15:51;;;;;;;1.27;0.60;;;25.10;53.00;;;;;;5024722;28;20322;-78
2023/03/30 07:18:24;;;;;;;1.15;0.52;;;24.90;53.40;;;;;;5020300;28;20221;-78
2023/03/30 07:20:55;;;;;;;0.85;0.30;;;24.80;54.10;;;;;;5021107;28;20194;-78
2023/03/30 07:23:27;;;;;;;3.90;0.60;;;24.80;54.40;;;;;;5021909;28;20207;-79
2023/03/30 07:25:58;;;;;;;2.47;0.70;;;24.80;53.60;;;;;;5025427;28;20200;-78
2023/03/30 07:28:29;;;;;;;1.77;0.82;;;24.60;53.40;;;;;;5021010;28;20916;-78
2023/03/30 07:31:07;;;;;;;3.22;0.90;;;24.60;53.80;;;;;;5018852;28;20211;-79
2023/03/30 07:33:40;;;;;;;2.33;1.70;;;24.50;53.80;;;;;;5019887;28;20569;-81
2023/03/30 07:36:12;;;;;;;2.17;1.35;;;24.50;54.30;;;;;;5020326;28;20208;-78
2023/03/30 07:38:44;;;;;;;2.22;1.58;;;24.40;54.30;;;;;;5020653;28;20230;-77
2023/03/30 07:41:18;;;;;;;2.45;1.20;;;24.30;54.80;;;;;;5019338;28;20204;-78
2023/03/30 07:43:49;;;;;;;4.50;1.58;;;24.20;55.70;;;;;;5018784;28;20787;-78
2023/03/30 07:46:20;;;;;;;3.75;1.92;;;24.00;56.20;;;;;;5020898;28;20903;-80
2023/03/30 07:48:53;;;;;;;2.38;1.05;;;23.90;56.40;;;;;;5026070;28;20196;-79
2023/03/30 07:51:25;;;;;;;3.90;1.25;;;23.80;57.50;;;;;;5021753;28;20277;-79
2023/03/30 07:53:56;;;;;;;4.43;2.25;;;23.90;57.30;;;;;;5020265;28;20196;-78
2023/03/30 07:56:27;;;;;;;4.30;1.98;;;23.70;57.40;;;;;;5017961;28;20201;-79
2023/03/30 07:58:58;;;;;;;2.38;1.30;;;23.60;56.90;;;;;;5021540;28;20224;-77
2023/03/30 08:01:30;;;;;;;1.60;0.95;;;23.60;56.70;;;;;;5017332;28;20201;-78
2023/03/30 08:04:03;;;;;;;2.67;1.02;;;23.50;56.30;;;;;;5018055;28;20205;-77
2023/03/30 08:06:36;;;;;;;1.40;0.90;;;23.50;56.30;;;;;;5029409;28;20197;-79
2023/03/30 08:09:07;;;;;;;4.47;0.98;;;23.30;56.50;;;;;;5053612;28;20211;-79
2023/03/30 08:11:38;;;;;;;3.08;0.60;;;23.30;56.90;;;;;;5054388;28;20273;-78
2023/03/30 08:14:09;;;;;;;3.13;1.30;;;23.30;56.80;;;;;;5053580;28;20226;-79
2023/03/30 08:16:41;;;;;;;2.40;1.20;;;23.30;57.20;;;;;;5053147;28;20196;-79
2023/03/30 08:19:14;;;;;;;1.63;1.00;;;23.20;57.60;;;;;;5051448;28;20216;-79
2023/03/30 08:21:45;;;;;;;6.95;2.40;;;23.20;58.10;;;;;;5033845;28;20201;-79
2023/03/30 08:24:16;;;;;;;3.85;2.25;;;23.20;57.00;;;;;;5017532;28;20197;-79
2023/03/30 08:26:47;;;;;;;3.63;1.40;;;23.10;57.00;;;;;;5018078;28;20229;-78
2023/03/30 08:29:18;;;;;;;1.35;1.00;;;23.00;56.70;;;;;;5017706;28;20319;-79
2023/03/30 08:31:49;;;;;;;1.65;0.90;;;23.10;56.90;;;;;;5016624;28;20196;-79
2023/03/30 08:34:22;;;;;;;2.45;0.90;;;23.10;56.80;;;;;;5017473;28;20403;-77
2023/03/30 08:36:53;;;;;;;3.10;1.38;;;23.10;57.00;;;;;;5018270;28;20291;-78
2023/03/30 08:39:24;;;;;;;3.63;1.65;;;23.00;57.40;;;;;;5017816;28;20232;-78
2023/03/30 08:42:13;;;;;;;3.05;1.48;;;23.00;57.40;;;;;;5016862;28;20224;-78
2023/03/30 08:44:49;;;;;;;2.08;1.00;;;23.00;57.40;;;;;;5017299;28;20205;-78
2023/03/30 08:47:23;;;;;;;2.20;1.05;;;22.80;57.40;;;;;;5019453;28;20200;-76
2023/03/30 08:50:01;;;;;;;1.63;1.08;;;22.80;58.00;;;;;;5020228;28;20453;-77
2023/03/30 08:52:32;;;;;;;3.13;1.58;;;22.70;58.00;;;;;;5019584;28;20201;-77
2023/03/30 08:55:04;;;;;;;2.38;1.00;;;22.70;57.90;;;;;;5021083;28;20287;-78
2023/03/30 08:57:45;;;;;;;7.13;3.22;;;22.70;58.40;;;;;;5017656;28;20198;-77
2023/03/30 09:00:27;;;;;;;4.00;2.35;;;22.70;58.50;;;;;;5017012;28;20921;-79
2023/03/30 09:03:08;;;;;;;8.70;4.28;;;22.70;58.20;;;;;;5016320;28;20815;-78
2023/03/30 09:05:47;;;;;;;6.18;4.70;;;22.60;58.30;;;;;;5016786;28;20925;-77
2023/03/30 09:08:21;;;;;;;10.60;5.00;;;22.50;58.60;;;;;;5016822;28;21501;-77
2023/03/30 09:10:58;;;;;;;4.03;1.92;;;22.50;59.00;;;;;;5018015;28;22206;-78
2023/03/30 09:13:33;;;;;;;2.83;1.50;;;22.50;58.60;;;;;;5019168;28;20196;-77
2023/03/30 09:16:14;;;;;;;15.60;6.78;;;22.40;58.50;;;;;;5018701;28;20200;-77
2023/03/30 09:18:48;;;;;;;3.83;1.50;;;22.30;58.80;;;;;;5017534;28;20602;-78
2023/03/30 09:21:24;;;;;;;3.70;1.40;;;22.40;58.90;;;;;;5020551;28;20201;-78
2023/03/30 09:23:59;;;;;;;8.77;5.88;;;22.20;59.10;;;;;;5016520;28;20219;-78
2023/03/30 09:26:38;;;;;;;7.22;1.42;;;22.20;59.10;;;;;;5016800;28;20286;-77
2023/03/30 09:29:14;;;;;;;8.65;3.25;;;22.20;59.40;;;;;;5016999;28;20200;-77
2023/03/30 09:31:49;;;;;;;4.47;1.10;;;22.20;59.60;;;;;;5016067;28;20200;-78
2023/03/30 09:34:28;;;;;;;1.67;1.15;;;22.00;59.80;;;;;;5014355;28;20456;-78
2023/03/30 09:37:05;;;;;;;1.27;0.70;;;22.00;60.20;;;;;;5018356;28;20247;-77
2023/03/30 09:39:38;;;;;;;3.22;0.90;;;22.10;59.60;;;;;;5016071;28;20599;-77
2023/03/30 09:42:24;;;;;;;2.22;1.02;;;21.90;59.80;;;;;;5018263;28;20193;-77
2023/03/30 09:44:58;;;;;;;3.35;1.20;;;22.00;60.20;;;;;;5016168;28;20201;-77
2023/03/30 09:47:30;;;;;;;1.05;0.70;;;21.90;60.40;;;;;;5020131;28;20647;-77
2023/03/30 09:50:03;;;;;;;2.55;0.60;;;21.90;60.50;;;;;;5018921;28;20220;-76
2023/03/30 09:52:38;;;;;;;1.20;0.60;;;21.90;60.70;;;;;;5017420;28;20211;-77
2023/03/30 09:55:30;;;;;;;3.78;1.20;;;21.80;60.90;;;;;;5020723;28;21480;-78
2023/03/30 09:58:16;;;;;;;3.90;0.98;;;21.80;61.20;;;;;;5017527;28;20197;-78
2023/03/30 10:00:49;;;;;;;3.58;1.88;;;21.80;62.00;;;;;;5018777;28;20313;-78
2023/03/30 10:03:26;;;;;;;1.33;1.08;;;21.90;61.90;;;;;;5014953;28;20200;-78
2023/03/30 10:06:06;;;;;;;1.35;1.00;;;21.90;61.80;;;;;;5015603;28;20203;-76
2023/03/30 10:08:46;;;;;;;2.53;1.40;;;21.90;62.10;;;;;;5016088;28;20200;-77
2023/03/30 10:11:21;;;;;;;14.65;9.63;;;21.80;62.30;;;;;;5018078;28;20712;-79
2023/03/30 10:13:53;;;;;;;2.20;0.60;;;21.70;62.50;;;;;;5016194;28;20561;-78
2023/03/30 10:16:29;;;;;;;1.83;0.63;;;21.70;62.50;;;;;;5016831;28;20196;-77
2023/03/30 10:19:03;;;;;;;3.45;0.47;;;21.60;62.50;;;;;;5018161;28;20231;-77
2023/03/30 10:21:38;;;;;;;1.13;0.50;;;21.50;63.10;;;;;;5013988;28;20206;-78
2023/03/30 10:24:23;;;;;;;1.90;0.50;;;21.50;63.40;;;;;;5017318;28;20203;-77
2023/03/30 10:26:57;;;;;;;0.70;0.38;;;21.50;63.60;;;;;;5018268;28;20342;-78
2023/03/30 10:29:30;;;;;;;0.98;0.43;;;21.60;63.70;;;;;;5018051;28;20196;-79
2023/03/30 10:32:04;;;;;;;0.88;0.45;;;21.60;64.40;;;;;;5017141;28;20203;-79
2023/03/30 10:34:41;;;;;;;1.10;0.40;;;21.60;64.10;;;;;;5017573;28;20259;-79
2023/03/30 10:37:16;;;;;;;1.63;0.60;;;21.60;64.60;;;;;;5017590;28;20200;-78
2023/03/30 10:39:50;;;;;;;2.05;0.57;;;21.60;64.30;;;;;;5017265;28;20224;-78
2023/03/30 10:42:25;;;;;;;1.55;0.63;;;21.50;65.10;;;;;;5017286;28;20203;-78
2023/03/30 10:44:58;;;;;;;1.63;0.60;;;21.50;65.20;;;;;;5014850;28;20215;-78
2023/03/30 10:47:45;;;;;;;1.98;0.77;;;21.50;65.80;;;;;;5018077;28;20197;-78
2023/03/30 10:50:27;;;;;;;2.22;0.45;;;21.50;65.40;;;;;;5017816;28;20223;-79
2023/03/30 10:53:08;;;;;;;1.17;0.50;;;21.50;65.70;;;;;;5020142;28;22113;-78
2023/03/30 10:55:49;;;;;;;1.23;0.55;;;21.50;66.90;;;;;;5016331;28;20220;-78
2023/03/30 10:58:33;;;;;;;3.83;0.40;;;21.50;67.00;;;;;;5017503;28;21157;-78
2023/03/30 11:01:13;;;;;;;1.73;0.52;;;21.50;67.00;;;;;;5018775;28;20252;-78
2023/03/30 11:03:48;;;;;;;2.53;0.70;;;21.30;67.50;;;;;;5018516;28;20298;-79
2023/03/30 11:06:23;;;;;;;4.35;0.60;;;21.40;67.90;;;;;;5020831;28;20691;-77
2023/03/30 11:08:58;;;;;;;2.28;0.60;;;21.40;68.20;;;;;;5022808;28;20638;-79
2023/03/30 11:11:36;;;;;;;0.82;0.50;;;21.40;69.30;;;;;;5019907;28;20278;-80
2023/03/30 11:14:13;;;;;;;0.30;0.20;;;21.30;68.00;;;;;;5017665;28;20238;-78
2023/03/30 11:16:53;;;;;;;1.85;0.50;;;21.20;68.40;;;;;;5022609;28;20589;-78
2023/03/30 11:19:27;;;;;;;1.23;0.40;;;21.20;69.00;;;;;;5015226;28;20228;-78
2023/03/30 11:22:05;;;;;;;0.55;0.40;;;21.20;68.70;;;;;;5018160;28;20334;-78
2023/03/30 11:24:37;;;;;;;0.90;0.32;;;21.10;70.40;;;;;;5018523;28;20192;-78
2023/03/30 11:27:17;;;;;;;2.47;0.30;;;21.10;69.90;;;;;;5014899;28;20311;-80
2023/03/30 11:29:54;;;;;;;0.85;0.30;;;21.10;70.50;;;;;;5019945;28;20204;-81
2023/03/30 11:32:33;;;;;;;0.70;0.40;;;21.10;70.00;;;;;;5015192;28;20215;-78
2023/03/30 11:35:13;;;;;;;1.60;0.30;;;21.10;70.70;;;;;;5013956;28;20205;-78
2023/03/30 11:37:52;;;;;;;2.70;0.30;;;21.20;72.10;;;;;;5016620;28;20227;-78
2023/03/30 11:40:26;;;;;;;1.70;0.28;;;21.10;71.70;;;;;;5018605;28;20251;-78
2023/03/30 11:43:00;;;;;;;0.82;0.30;;;21.00;71.10;;;;;;5015294;28;20205;-79
2023/03/30 11:45:44;;;;;;;0.65;0.30;;;21.10;70.20;;;;;;5017200;28;20220;-78
2023/03/30 11:48:34;;;;;;;0.52;0.30;;;21.00;70.30;;;;;;5014646;28;20207;-78
2023/03/30 11:51:43;;;;;;;1.95;0.38;;;21.00;70.90;;;;;;5020394;28;20224;-77
2023/03/30 11:54:42;;;;;;;1.58;0.30;;;20.90;70.40;;;;;;5011351;28;20201;-81
2023/03/30 11:57:21;;;;;;;0.65;0.40;;;20.90;71.10;;;;;;5018259;28;20754;-80
2023/03/30 12:00:08;;;;;;;1.15;0.50;;;20.90;71.60;;;;;;5023432;28;20236;-79
2023/03/30 12:02:48;;;;;;;0.32;0.25;;;20.80;72.20;;;;;;5021821;28;20200;-80
2023/03/30 12:05:27;;;;;;;1.80;0.35;;;20.80;72.30;;;;;;5024959;28;20215;-80
2023/03/30 12:08:08;;;;;;;1.15;0.30;;;20.80;72.80;;;;;;5029777;28;20224;-79
2023/03/30 12:10:43;;;;;;;1.30;0.47;;;20.70;73.70;;;;;;5026974;28;20714;-78
2023/03/30 12:13:17;;;;;;;0.88;0.30;;;20.60;74.10;;;;;;5017978;28;20205;-79
2023/03/30 12:15:55;;;;;;;2.50;0.40;;;20.60;75.00;;;;;;5020888;28;20220;-78
2023/03/30 12:18:54;;;;;;;1.27;0.40;;;20.60;74.70;;;;;;5027339;28;20212;-80
2023/03/30 12:21:33;;;;;;;2.28;0.65;;;20.60;75.20;;;;;;5018474;28;21512;-78
2023/03/30 12:24:12;;;;;;;1.58;0.20;;;20.70;75.40;;;;;;5018693;28;20333;-78
2023/03/30 12:26:43;;;;;;;1.98;0.73;;;20.60;75.30;;;;;;5016080;28;20209;-79
2023/03/30 12:29:15;;;;;;;1.50;0.50;;;20.50;75.50;;;;;;5016369;28;20684;-79
2023/03/30 12:32:20;;;;;;;2.90;0.30;;;20.50;76.10;;;;;;5020301;28;20671;-78
2023/03/30 12:34:52;;;;;;;0.93;0.40;;;20.50;76.70;;;;;;5013487;28;20204;-78
2023/03/30 12:37:25;;;;;;;1.23;0.47;;;20.50;77.60;;;;;;5023500;28;20251;-79
2023/03/30 12:40:05;;;;;;;2.03;0.32;;;20.50;77.00;;;;;;5018071;28;20707;-79
2023/03/30 12:42:45;;;;;;;1.75;0.73;;;20.50;77.20;;;;;;5021418;28;20280;-81
2023/03/30 12:45:37;;;;;;;1.20;0.38;;;20.50;77.60;;;;;;5015076;28;20804;-79
2023/03/30 12:48:35;;;;;;;2.88;0.40;;;20.40;77.70;;;;;;5015947;28;20576;-79
2023/03/30 12:51:15;;;;;;;1.77;0.40;;;20.40;78.50;;;;;;5025059;28;20224;-78
2023/03/30 12:54:16;;;;;;;2.25;0.52;;;20.20;79.80;;;;;;5020885;28;20773;-77
2023/03/30 12:56:57;;;;;;;1.30;0.60;;;20.30;80.20;;;;;;5020459;28;20196;-78
2023/03/30 13:00:04;;;;;;;0.70;0.40;;;20.30;80.90;;;;;;5015173;28;20712;-76
2023/03/30 13:02:53;;;;;;;0.52;0.40;;;20.30;80.70;;;;;;5019173;28;20278;-78
2023/03/30 13:05:30;;;;;;;0.32;0.20;;;20.20;82.40;;;;;;5023196;28;20206;-77
2023/03/30 13:08:06;;;;;;;1.60;0.50;;;20.20;83.00;;;;;;5024033;28;20192;-77
2023/03/30 13:10:43;;;;;;;1.55;0.50;;;20.20;82.80;;;;;;5018677;28;20310;-77
2023/03/30 13:13:47;;;;;;;1.65;0.40;;;20.30;82.90;;;;;;5014444;28;20196;-78
2023/03/30 13:16:38;;;;;;;1.13;0.40;;;20.30;82.20;;;;;;5016225;28;20309;-77
2023/03/30 13:19:22;;;;;;;1.02;0.38;;;20.20;82.20;;;;;;5014160;28;20204;-77
2023/03/30 13:22:00;;;;;;;1.42;0.50;;;20.20;82.40;;;;;;5016038;28;20204;-77
2023/03/30 13:24:41;;;;;;;1.13;0.47;;;20.20;83.00;;;;;;5019608;28;20200;-77
2023/03/30 13:27:27;;;;;;;1.50;0.30;;;20.00;83.80;;;;;;5019728;28;20252;-77
2023/03/30 13:30:01;;;;;;;2.05;0.50;;;20.00;83.90;;;;;;5017755;28;20219;-77
2023/03/30 13:32:50;;;;;;;3.35;0.50;;;19.90;84.30;;;;;;5018873;28;20282;-77